Terminal Aerodrome Forecast
Issued by NWS King Salmon, AK

Home | Current Version | Previous Version | Text Only | Print | Product List | Glossary On
Versions: 1 2 3 4 5 6 7 8 9 10 11 12 13 14 15 16 17 18 19 20 21 22 23 24 25 26 27 28 29 30 31 32 33 34 35 36 37 38 39 40 41 42
428
FTAK31 PANC 231151
TAFAKN
TAF
PAKN 231151Z 2312/2412 27008KT P6SM FEW020 BKN100
     FM231500 VRB02KT P6SM BKN007 OVC100
     FM232100 12010KT P6SM VCSH FEW010 BKN040
     FM240000 09010KT 1SM -SN BR BKN010 OVC030
     FM240600 23018G25KT 2SM -SN BKN015 OVC040=

USA.gov is the U.S. government's official web portal to all federal, state and local government web resources and services.